Quenames — WTU9038 — position and weather

sailwx.info

Track history (hours):
 
Tides and Currents Weather Stations Pressure Air Temp Water Temp Dewpoint Dewpoint Depression Visibility Wind Speed Wind Dir Waves Ship Positions

Quenames

Owner: BOSTON MARINE TRANSPORT INC, Pelham, NH. More information available from US FCC via Universal Licensing System and Coast Guard Vessel Documentation Center.

Last reported at 2017-Sep-22 01:25 UTC. Time now 2017-Sep-22 08:19 UTC.
Position N 40°56' W 073°54'.

Length 23 m; draft 3 m.

Type: Tug. MMSI: 367022790.

Date/timePositionNaut miles runAvg speedWind from/ knotsBaromVisibWave heightAir tempDewpointWater temp
2017-Sep-22 01:25N 40°56' W 073°54'3 7.9
2017-Sep-22 01:00N 40°53' W 073°56'4 7.9
2017-Sep-22 00:30N 40°50' W 073°58'4 7.6
2017-Sep-22 00:00N 40°46' W 074°00'3 6.6
2017-Sep-21 23:30N 40°43' W 074°01'3 6.0
2017-Sep-21 23:00N 40°41' W 074°03'3 5.1
2017-Sep-21 22:30N 40°39' W 074°06'2 4.3
2017-Sep-21 22:00N 40°39' W 074°08'3 5.1
2017-Sep-21 21:30N 40°38' W 074°12'3 5.1
2017-Sep-21 20:59N 40°36' W 074°12'3 4.5
2017-Sep-21 20:23N 40°33' W 074°14'1 1.7
2017-Sep-21 19:54N 40°33' W 074°15'0 0.3
2017-Sep-21 19:30N 40°33' W 074°15'0 0.0
2017-Sep-21 18:49N 40°33' W 074°15'0 0.0
2017-Sep-21 18:28N 40°33' W 074°15'0 0.0
2017-Sep-21 17:08N 40°33' W 074°15'0 0.0
2017-Sep-21 16:58N 40°33' W 074°15'0 0.0
2017-Sep-21 16:30N 40°33' W 074°15'0 0.0
2017-Sep-21 11:25N 40°33' W 074°15'0 0.6
2017-Sep-21 10:49N 40°33' W 074°15'2 6.0
2017-Sep-21 10:25N 40°35' W 074°13'3 7.3
2017-Sep-21 10:00N 40°38' W 074°12'4 7.4
2017-Sep-21 09:30N 40°39' W 074°08'4 8.3
2017-Sep-21 09:00N 40°40' W 074°03'4 8.8
2017-Sep-21 08:30N 40°43' W 073°58'5 9.5
2017-Sep-21 07:58N 40°48' W 073°55'4 8.1
2017-Sep-21 07:30N 40°48' W 073°50'  
2017-Sep-19 02:26N 40°49' W 073°47'2 4.5
2017-Sep-19 02:00N 40°48' W 073°49'4 6.2
2017-Sep-19 01:24N 40°48' W 073°54'3 7.0
2017-Sep-19 00:59N 40°46' W 073°57'3 7.2
2017-Sep-19 00:30N 40°43' W 073°58'4 7.1
2017-Sep-19 00:00N 40°40' W 074°02'3 5.6
2017-Sep-18 23:30N 40°39' W 074°05'3 5.8
2017-Sep-18 23:00N 40°38' W 074°09'3 5.4
2017-Sep-18 22:30N 40°37' W 074°12'6 1.2
2017-Sep-18 17:27N 40°32' W 074°15'0 0.0
2017-Sep-18 16:40N 40°32' W 074°15'0 0.2
2017-Sep-18 16:23N 40°32' W 074°15'4 5.6
2017-Sep-18 15:38N 40°36' W 074°12'2 9.3
2017-Sep-18 15:28N 40°37' W 074°12'2 3.8
2017-Sep-18 14:59N 40°39' W 074°11'3 7.0
2017-Sep-18 14:30N 40°39' W 074°07'0 0.0
2017-Sep-18 14:00N 40°39' W 074°07'0 0.0
2017-Sep-18 13:30N 40°39' W 074°07'0 0.0
2017-Sep-18 12:59N 40°39' W 074°07'3 6.8
2017-Sep-18 12:29N 40°39' W 074°11'4 8.9
2017-Sep-18 11:58N 40°34' W 074°13'1 0.0
2017-Sep-16 08:56N 40°36' W 074°12'1 2.2
2017-Sep-16 08:30N 40°37' W 074°12'2 3.5
2017-Sep-16 08:00N 40°38' W 074°12'3 6.6
2017-Sep-16 07:30N 40°39' W 074°07'4 8.1
2017-Sep-16 07:00N 40°40' W 074°03'4 8.8
2017-Sep-16 06:30N 40°45' W 074°01'5 9.6
2017-Sep-16 06:00N 40°49' W 073°58'9 0.5
2017-Sep-15 10:55N 40°57' W 073°54'4 7.3
2017-Sep-15 10:23N 40°54' W 073°55'3 7.8
2017-Sep-15 10:00N 40°51' W 073°57'4 7.8
2017-Sep-15 09:30N 40°47' W 073°59'4 7.7
2017-Sep-15 09:00N 40°44' W 074°01'4 7.6
2017-Sep-15 08:30N 40°40' W 074°03'3 6.4
2017-Sep-15 08:00N 40°39' W 074°07'3 6.3
2017-Sep-15 07:30N 40°39' W 074°11'3 6.3
2017-Sep-15 06:57N 40°36' W 074°12'3 6.2
2017-Sep-15 06:29N 40°33' W 074°15'0 0.7
2017-Sep-15 05:57N 40°33' W 074°15'0 0.0
2017-Sep-15 05:24N 40°33' W 074°15'0 0.0
2017-Sep-14 23:06N 40°33' W 074°15'0 0.0
2017-Sep-14 22:58N 40°33' W 074°15'0 0.0
2017-Sep-14 22:29N 40°33' W 074°15'0 0.0
2017-Sep-14 21:19N 40°33' W 074°15'0 0.1
2017-Sep-14 20:56N 40°33' W 074°15'3 3.5
2017-Sep-14 19:56N 40°36' W 074°12'3 6.6
2017-Sep-14 19:30N 40°38' W 074°11'4 7.4
2017-Sep-14 19:00N 40°39' W 074°07'0 0.4
2017-Sep-14 18:30N 40°39' W 074°06'0 0.0
2017-Sep-14 18:00N 40°39' W 074°06'0 0.0
2017-Sep-14 17:30N 40°39' W 074°06'0 0.0
2017-Sep-14 17:00N 40°39' W 074°06'0 0.0
2017-Sep-14 16:30N 40°39' W 074°06'0 0.0
2017-Sep-14 16:00N 40°39' W 074°06'0 0.0
2017-Sep-14 15:30N 40°39' W 074°06'0 0.0
2017-Sep-14 15:00N 40°39' W 074°06'0 0.0
2017-Sep-14 14:30N 40°39' W 074°06'0 0.0
2017-Sep-14 14:00N 40°39' W 074°06'0 0.0
2017-Sep-14 13:30N 40°39' W 074°06'0 0.0
2017-Sep-14 13:00N 40°39' W 074°06'0 0.0
2017-Sep-14 12:30N 40°39' W 074°06'0 0.0
2017-Sep-14 12:00N 40°39' W 074°06'0 0.0
2017-Sep-14 11:30N 40°39' W 074°06'0 0.0
2017-Sep-14 11:00N 40°39' W 074°06'0 0.0
2017-Sep-14 10:30N 40°39' W 074°06'0 0.0
2017-Sep-14 10:00N 40°39' W 074°06'0 0.0
2017-Sep-14 09:30N 40°39' W 074°06'0 0.0
2017-Sep-14 09:00N 40°39' W 074°06'0 0.0
2017-Sep-14 08:30N 40°39' W 074°06'0 0.0
2017-Sep-14 08:00N 40°39' W 074°06'0 0.0
2017-Sep-14 07:30N 40°39' W 074°06'0 0.1
2017-Sep-14 07:00N 40°39' W 074°06'0 0.0
2017-Sep-14 06:30N 40°39' W 074°06'0 0.2
2017-Sep-14 06:00N 40°39' W 074°06'2 5.0
2017-Sep-14 05:30N 40°38' W 074°03'0 0.2
2017-Sep-14 05:00N 40°38' W 074°03'1 2.8
2017-Sep-14 04:30N 40°39' W 074°05'2 3.9
2017-Sep-14 04:00N 40°39' W 074°07'2 4.1
2017-Sep-14 03:30N 40°39' W 074°10'2 4.3
2017-Sep-14 03:00N 40°38' W 074°12'0 0.1
2017-Sep-14 02:27N 40°38' W 074°12'0 0.0
2017-Sep-14 01:48N 40°38' W 074°12'0 0.0
2017-Sep-14 01:28N 40°38' W 074°12'0 0.0
2017-Sep-14 00:58N 40°38' W 074°12'0 0.0
2017-Sep-14 00:29N 40°38' W 074°12'0 0.0
2017-Sep-13 23:57N 40°38' W 074°12'1 1.2
2017-Sep-13 23:29N 40°37' W 074°12'6 0.6
2017-Sep-13 14:35N 40°32' W 074°15'2 7.3
2017-Sep-13 14:18N 40°33' W 074°14'3 9.0
2017-Sep-13 14:00N 40°36' W 074°12'2 3.6
2017-Sep-13 13:30N 40°38' W 074°12'3 5.8
2017-Sep-13 13:01N 40°39' W 074°09'3 5.5
2017-Sep-13 12:30N 40°39' W 074°05'0 0.1
2017-Sep-13 12:00N 40°39' W 074°05'0 0.0
2017-Sep-13 11:30N 40°39' W 074°05'0 0.0
2017-Sep-13 11:00N 40°39' W 074°05'0 0.0
2017-Sep-13 10:30N 40°39' W 074°05'0 0.0
2017-Sep-13 10:00N 40°39' W 074°05'0 0.0
2017-Sep-13 09:30N 40°39' W 074°05'0 0.0
2017-Sep-13 09:00N 40°39' W 074°05'0 0.0
2017-Sep-13 08:30N 40°39' W 074°05'0 0.0
2017-Sep-13 08:00N 40°39' W 074°05'0 0.0
2017-Sep-13 07:30N 40°39' W 074°05'0 0.0
2017-Sep-13 07:00N 40°39' W 074°05'0 0.0
2017-Sep-13 06:30N 40°39' W 074°05'0 0.0
2017-Sep-13 06:00N 40°39' W 074°05'0 0.0
2017-Sep-13 05:30N 40°39' W 074°05'0 0.0
2017-Sep-13 05:00N 40°39' W 074°05'0 0.0
2017-Sep-13 04:30N 40°39' W 074°05'0 0.0
2017-Sep-13 04:00N 40°39' W 074°05'0 0.0
2017-Sep-13 03:30N 40°39' W 074°05'0 0.0
2017-Sep-13 03:00N 40°39' W 074°05'0 0.0
2017-Sep-13 02:30N 40°39' W 074°05'0 0.0
2017-Sep-13 02:00N 40°39' W 074°05'0 0.0
2017-Sep-13 01:30N 40°39' W 074°05'0 0.0
2017-Sep-13 01:00N 40°39' W 074°05'0 0.0
2017-Sep-13 00:30N 40°39' W 074°05'0 0.0
2017-Sep-13 00:00N 40°39' W 074°05'0 0.0
2017-Sep-12 23:30N 40°39' W 074°05'0 0.0
2017-Sep-12 23:00N 40°39' W 074°05'0 0.0
2017-Sep-12 22:30N 40°39' W 074°05'0 0.0
2017-Sep-12 22:00N 40°39' W 074°05'0 0.0
2017-Sep-12 21:30N 40°39' W 074°05'0 0.0
2017-Sep-12 21:00N 40°39' W 074°05'0 0.0
2017-Sep-12 20:30N 40°39' W 074°05'0 0.0
2017-Sep-12 20:00N 40°39' W 074°05'0 0.0
2017-Sep-12 19:30N 40°39' W 074°05'0 0.0
2017-Sep-12 19:00N 40°39' W 074°05'0 0.0
2017-Sep-12 18:30N 40°39' W 074°05'0 0.0
2017-Sep-12 18:00N 40°39' W 074°05'0 0.0
2017-Sep-12 17:30N 40°39' W 074°05'0 0.0
2017-Sep-12 17:00N 40°39' W 074°05'0 0.0
2017-Sep-12 16:30N 40°39' W 074°05'0 0.0
2017-Sep-12 16:00N 40°39' W 074°05'0 0.0
2017-Sep-12 15:30N 40°39' W 074°05'0 0.0
2017-Sep-12 15:00N 40°39' W 074°05'0 0.0
2017-Sep-12 14:30N 40°39' W 074°05'0 0.0
2017-Sep-12 14:00N 40°39' W 074°05'0 0.0
2017-Sep-12 13:30N 40°39' W 074°05'0 0.0
2017-Sep-12 13:00N 40°39' W 074°05'0 0.0
2017-Sep-12 12:30N 40°39' W 074°05'0 0.0
2017-Sep-12 12:00N 40°39' W 074°05'0 0.0
2017-Sep-12 11:30N 40°39' W 074°05'2 4.5
2017-Sep-12 11:00N 40°40' W 074°02'0 0.1
2017-Sep-12 10:30N 40°40' W 074°02'0 0.0
2017-Sep-12 10:00N 40°40' W 074°02'0 0.0
2017-Sep-12 09:30N 40°40' W 074°02'0 0.0
2017-Sep-12 09:00N 40°40' W 074°02'0 0.0
2017-Sep-12 08:30N 40°40' W 074°02'0 0.0
2017-Sep-12 08:00N 40°40' W 074°02'0 0.0
2017-Sep-12 07:30N 40°40' W 074°02'0 0.3
2017-Sep-12 07:00N 40°40' W 074°02'0 0.1
2017-Sep-12 06:30N 40°40' W 074°02'0 0.0
2017-Sep-12 06:00N 40°40' W 074°02'0 0.0
2017-Sep-12 05:30N 40°40' W 074°02'0 0.0
2017-Sep-12 05:00N 40°40' W 074°02'0 0.0
2017-Sep-12 04:30N 40°40' W 074°02'0 0.0
2017-Sep-12 04:00N 40°40' W 074°02'0 0.0
2017-Sep-12 03:30N 40°40' W 074°02'0 0.1
2017-Sep-12 03:00N 40°40' W 074°02'0 0.0
2017-Sep-12 02:30N 40°40' W 074°02'0 0.1
2017-Sep-12 02:00N 40°40' W 074°02'0 0.1
2017-Sep-12 01:30N 40°40' W 074°02'  
Track history (hours):
 
Tides and Currents Weather Stations Pressure Air Temp Water Temp Dewpoint Dewpoint Depression Visibility Wind Speed Wind Dir Waves Ship Positions

Quenames

Owner: BOSTON MARINE TRANSPORT INC, Pelham, NH. More information available from US FCC via Universal Licensing System and Coast Guard Vessel Documentation Center.

Last reported at 2017-Sep-22 01:25 UTC. Time now 2017-Sep-22 08:19 UTC.
Position N 40°56' W 073°54'.

Length 23 m; draft 3 m.

Type: Tug. MMSI: 367022790.

Date/timePositionNaut miles runAvg speedWind from/ knotsBaromVisibWave heightAir tempDewpointWater temp
2017-Sep-22 01:25N 40°56' W 073°54'3 7.9
2017-Sep-22 01:00N 40°53' W 073°56'4 7.9
2017-Sep-22 00:30N 40°50' W 073°58'4 7.6
2017-Sep-22 00:00N 40°46' W 074°00'3 6.6
2017-Sep-21 23:30N 40°43' W 074°01'3 6.0
2017-Sep-21 23:00N 40°41' W 074°03'3 5.1
2017-Sep-21 22:30N 40°39' W 074°06'2 4.3
2017-Sep-21 22:00N 40°39' W 074°08'3 5.1
2017-Sep-21 21:30N 40°38' W 074°12'3 5.1
2017-Sep-21 20:59N 40°36' W 074°12'3 4.5
2017-Sep-21 20:23N 40°33' W 074°14'1 1.7
2017-Sep-21 19:54N 40°33' W 074°15'0 0.3
2017-Sep-21 19:30N 40°33' W 074°15'0 0.0
2017-Sep-21 18:49N 40°33' W 074°15'0 0.0
2017-Sep-21 18:28N 40°33' W 074°15'0 0.0
2017-Sep-21 17:08N 40°33' W 074°15'0 0.0
2017-Sep-21 16:58N 40°33' W 074°15'0 0.0
2017-Sep-21 16:30N 40°33' W 074°15'0 0.0
2017-Sep-21 11:25N 40°33' W 074°15'0 0.6
2017-Sep-21 10:49N 40°33' W 074°15'2 6.0
2017-Sep-21 10:25N 40°35' W 074°13'3 7.3
2017-Sep-21 10:00N 40°38' W 074°12'4 7.4
2017-Sep-21 09:30N 40°39' W 074°08'4 8.3
2017-Sep-21 09:00N 40°40' W 074°03'4 8.8
2017-Sep-21 08:30N 40°43' W 073°58'5 9.5
2017-Sep-21 07:58N 40°48' W 073°55'4 8.1
2017-Sep-21 07:30N 40°48' W 073°50'  
2017-Sep-19 02:26N 40°49' W 073°47'2 4.5
2017-Sep-19 02:00N 40°48' W 073°49'4 6.2
2017-Sep-19 01:24N 40°48' W 073°54'3 7.0
2017-Sep-19 00:59N 40°46' W 073°57'3 7.2
2017-Sep-19 00:30N 40°43' W 073°58'4 7.1
2017-Sep-19 00:00N 40°40' W 074°02'3 5.6
2017-Sep-18 23:30N 40°39' W 074°05'3 5.8
2017-Sep-18 23:00N 40°38' W 074°09'3 5.4
2017-Sep-18 22:30N 40°37' W 074°12'6 1.2
2017-Sep-18 17:27N 40°32' W 074°15'0 0.0
2017-Sep-18 16:40N 40°32' W 074°15'0 0.2
2017-Sep-18 16:23N 40°32' W 074°15'4 5.6
2017-Sep-18 15:38N 40°36' W 074°12'2 9.3
2017-Sep-18 15:28N 40°37' W 074°12'2 3.8
2017-Sep-18 14:59N 40°39' W 074°11'3 7.0
2017-Sep-18 14:30N 40°39' W 074°07'0 0.0
2017-Sep-18 14:00N 40°39' W 074°07'0 0.0
2017-Sep-18 13:30N 40°39' W 074°07'0 0.0
2017-Sep-18 12:59N 40°39' W 074°07'3 6.8
2017-Sep-18 12:29N 40°39' W 074°11'4 8.9
2017-Sep-18 11:58N 40°34' W 074°13'1 0.0
2017-Sep-16 08:56N 40°36' W 074°12'1 2.2
2017-Sep-16 08:30N 40°37' W 074°12'2 3.5
2017-Sep-16 08:00N 40°38' W 074°12'3 6.6
2017-Sep-16 07:30N 40°39' W 074°07'4 8.1
2017-Sep-16 07:00N 40°40' W 074°03'4 8.8
2017-Sep-16 06:30N 40°45' W 074°01'5 9.6
2017-Sep-16 06:00N 40°49' W 073°58'9 0.5
2017-Sep-15 10:55N 40°57' W 073°54'4 7.3
2017-Sep-15 10:23N 40°54' W 073°55'3 7.8
2017-Sep-15 10:00N 40°51' W 073°57'4 7.8
2017-Sep-15 09:30N 40°47' W 073°59'4 7.7
2017-Sep-15 09:00N 40°44' W 074°01'4 7.6
2017-Sep-15 08:30N 40°40' W 074°03'3 6.4
2017-Sep-15 08:00N 40°39' W 074°07'3 6.3
2017-Sep-15 07:30N 40°39' W 074°11'3 6.3
2017-Sep-15 06:57N 40°36' W 074°12'3 6.2
2017-Sep-15 06:29N 40°33' W 074°15'0 0.7
2017-Sep-15 05:57N 40°33' W 074°15'0 0.0
2017-Sep-15 05:24N 40°33' W 074°15'0 0.0
2017-Sep-14 23:06N 40°33' W 074°15'0 0.0
2017-Sep-14 22:58N 40°33' W 074°15'0 0.0
2017-Sep-14 22:29N 40°33' W 074°15'0 0.0
2017-Sep-14 21:19N 40°33' W 074°15'0 0.1
2017-Sep-14 20:56N 40°33' W 074°15'3 3.5
2017-Sep-14 19:56N 40°36' W 074°12'3 6.6
2017-Sep-14 19:30N 40°38' W 074°11'4 7.4
2017-Sep-14 19:00N 40°39' W 074°07'0 0.4
2017-Sep-14 18:30N 40°39' W 074°06'0 0.0
2017-Sep-14 18:00N 40°39' W 074°06'0 0.0
2017-Sep-14 17:30N 40°39' W 074°06'0 0.0
2017-Sep-14 17:00N 40°39' W 074°06'0 0.0
2017-Sep-14 16:30N 40°39' W 074°06'0 0.0
2017-Sep-14 16:00N 40°39' W 074°06'0 0.0
2017-Sep-14 15:30N 40°39' W 074°06'0 0.0
2017-Sep-14 15:00N 40°39' W 074°06'0 0.0
2017-Sep-14 14:30N 40°39' W 074°06'0 0.0
2017-Sep-14 14:00N 40°39' W 074°06'0 0.0
2017-Sep-14 13:30N 40°39' W 074°06'0 0.0
2017-Sep-14 13:00N 40°39' W 074°06'0 0.0
2017-Sep-14 12:30N 40°39' W 074°06'0 0.0
2017-Sep-14 12:00N 40°39' W 074°06'0 0.0
2017-Sep-14 11:30N 40°39' W 074°06'0 0.0
2017-Sep-14 11:00N 40°39' W 074°06'0 0.0
2017-Sep-14 10:30N 40°39' W 074°06'0 0.0
2017-Sep-14 10:00N 40°39' W 074°06'0 0.0
2017-Sep-14 09:30N 40°39' W 074°06'0 0.0
2017-Sep-14 09:00N 40°39' W 074°06'0 0.0
2017-Sep-14 08:30N 40°39' W 074°06'0 0.0
2017-Sep-14 08:00N 40°39' W 074°06'0 0.0
2017-Sep-14 07:30N 40°39' W 074°06'0 0.1
2017-Sep-14 07:00N 40°39' W 074°06'0 0.0
2017-Sep-14 06:30N 40°39' W 074°06'0 0.2
2017-Sep-14 06:00N 40°39' W 074°06'2 5.0
2017-Sep-14 05:30N 40°38' W 074°03'0 0.2
2017-Sep-14 05:00N 40°38' W 074°03'1 2.8
2017-Sep-14 04:30N 40°39' W 074°05'2 3.9
2017-Sep-14 04:00N 40°39' W 074°07'2 4.1
2017-Sep-14 03:30N 40°39' W 074°10'2 4.3
2017-Sep-14 03:00N 40°38' W 074°12'0 0.1
2017-Sep-14 02:27N 40°38' W 074°12'0 0.0
2017-Sep-14 01:48N 40°38' W 074°12'0 0.0
2017-Sep-14 01:28N 40°38' W 074°12'0 0.0
2017-Sep-14 00:58N 40°38' W 074°12'0 0.0
2017-Sep-14 00:29N 40°38' W 074°12'0 0.0
2017-Sep-13 23:57N 40°38' W 074°12'1 1.2
2017-Sep-13 23:29N 40°37' W 074°12'6 0.6
2017-Sep-13 14:35N 40°32' W 074°15'2 7.3
2017-Sep-13 14:18N 40°33' W 074°14'3 9.0
2017-Sep-13 14:00N 40°36' W 074°12'2 3.6
2017-Sep-13 13:30N 40°38' W 074°12'3 5.8
2017-Sep-13 13:01N 40°39' W 074°09'3 5.5
2017-Sep-13 12:30N 40°39' W 074°05'0 0.1
2017-Sep-13 12:00N 40°39' W 074°05'0 0.0
2017-Sep-13 11:30N 40°39' W 074°05'0 0.0
2017-Sep-13 11:00N 40°39' W 074°05'0 0.0
2017-Sep-13 10:30N 40°39' W 074°05'0 0.0
2017-Sep-13 10:00N 40°39' W 074°05'0 0.0
2017-Sep-13 09:30N 40°39' W 074°05'0 0.0
2017-Sep-13 09:00N 40°39' W 074°05'0 0.0
2017-Sep-13 08:30N 40°39' W 074°05'0 0.0
2017-Sep-13 08:00N 40°39' W 074°05'0 0.0
2017-Sep-13 07:30N 40°39' W 074°05'0 0.0
2017-Sep-13 07:00N 40°39' W 074°05'0 0.0
2017-Sep-13 06:30N 40°39' W 074°05'0 0.0
2017-Sep-13 06:00N 40°39' W 074°05'0 0.0
2017-Sep-13 05:30N 40°39' W 074°05'0 0.0
2017-Sep-13 05:00N 40°39' W 074°05'0 0.0
2017-Sep-13 04:30N 40°39' W 074°05'0 0.0
2017-Sep-13 04:00N 40°39' W 074°05'0 0.0
2017-Sep-13 03:30N 40°39' W 074°05'0 0.0
2017-Sep-13 03:00N 40°39' W 074°05'0 0.0
2017-Sep-13 02:30N 40°39' W 074°05'0 0.0
2017-Sep-13 02:00N 40°39' W 074°05'0 0.0
2017-Sep-13 01:30N 40°39' W 074°05'0 0.0
2017-Sep-13 01:00N 40°39' W 074°05'0 0.0
2017-Sep-13 00:30N 40°39' W 074°05'0 0.0
2017-Sep-13 00:00N 40°39' W 074°05'0 0.0
2017-Sep-12 23:30N 40°39' W 074°05'0 0.0
2017-Sep-12 23:00N 40°39' W 074°05'0 0.0
2017-Sep-12 22:30N 40°39' W 074°05'0 0.0
2017-Sep-12 22:00N 40°39' W 074°05'0 0.0
2017-Sep-12 21:30N 40°39' W 074°05'0 0.0
2017-Sep-12 21:00N 40°39' W 074°05'0 0.0
2017-Sep-12 20:30N 40°39' W 074°05'0 0.0
2017-Sep-12 20:00N 40°39' W 074°05'0 0.0
2017-Sep-12 19:30N 40°39' W 074°05'0 0.0
2017-Sep-12 19:00N 40°39' W 074°05'0 0.0
2017-Sep-12 18:30N 40°39' W 074°05'0 0.0
2017-Sep-12 18:00N 40°39' W 074°05'0 0.0
2017-Sep-12 17:30N 40°39' W 074°05'0 0.0
2017-Sep-12 17:00N 40°39' W 074°05'0 0.0
2017-Sep-12 16:30N 40°39' W 074°05'0 0.0
2017-Sep-12 16:00N 40°39' W 074°05'0 0.0
2017-Sep-12 15:30N 40°39' W 074°05'0 0.0
2017-Sep-12 15:00N 40°39' W 074°05'0 0.0
2017-Sep-12 14:30N 40°39' W 074°05'0 0.0
2017-Sep-12 14:00N 40°39' W 074°05'0 0.0
2017-Sep-12 13:30N 40°39' W 074°05'0 0.0
2017-Sep-12 13:00N 40°39' W 074°05'0 0.0
2017-Sep-12 12:30N 40°39' W 074°05'0 0.0
2017-Sep-12 12:00N 40°39' W 074°05'0 0.0
2017-Sep-12 11:30N 40°39' W 074°05'2 4.5
2017-Sep-12 11:00N 40°40' W 074°02'0 0.1
2017-Sep-12 10:30N 40°40' W 074°02'0 0.0
2017-Sep-12 10:00N 40°40' W 074°02'0 0.0
2017-Sep-12 09:30N 40°40' W 074°02'0 0.0
2017-Sep-12 09:00N 40°40' W 074°02'0 0.0
2017-Sep-12 08:30N 40°40' W 074°02'0 0.0
2017-Sep-12 08:00N 40°40' W 074°02'0 0.0
2017-Sep-12 07:30N 40°40' W 074°02'0 0.3
2017-Sep-12 07:00N 40°40' W 074°02'0 0.1
2017-Sep-12 06:30N 40°40' W 074°02'0 0.0
2017-Sep-12 06:00N 40°40' W 074°02'0 0.0
2017-Sep-12 05:30N 40°40' W 074°02'0 0.0
2017-Sep-12 05:00N 40°40' W 074°02'0 0.0
2017-Sep-12 04:30N 40°40' W 074°02'0 0.0
2017-Sep-12 04:00N 40°40' W 074°02'0 0.0
2017-Sep-12 03:30N 40°40' W 074°02'0 0.1
2017-Sep-12 03:00N 40°40' W 074°02'0 0.0
2017-Sep-12 02:30N 40°40' W 074°02'0 0.1
2017-Sep-12 02:00N 40°40' W 074°02'0 0.1
2017-Sep-12 01:30N 40°40' W 074°02'  

Dump ship's entire track history